sensor_id;sensor_type;location;lat;lon;timestamp;temperature;humidity
46037;DHT22;31769;49.304;8.428;2023-07-13T00:00:38;19.90;99.90
46037;DHT22;31769;49.304;8.428;2023-07-13T00:03:39;19.90;99.90
46037;DHT22;31769;49.304;8.428;2023-07-13T00:06:41;19.70;99.90
46037;DHT22;31769;49.304;8.428;2023-07-13T00:09:45;19.70;99.90
46037;DHT22;31769;49.304;8.428;2023-07-13T00:12:47;19.60;99.90
46037;DHT22;31769;49.304;8.428;2023-07-13T00:15:48;19.60;99.90
46037;DHT22;31769;49.304;8.428;2023-07-13T00:18:49;19.60;99.90
46037;DHT22;31769;49.304;8.428;2023-07-13T00:21:49;19.40;99.90
46037;DHT22;31769;49.304;8.428;2023-07-13T00:24:50;19.40;99.90
46037;DHT22;31769;49.304;8.428;2023-07-13T00:27:52;19.30;99.90
46037;DHT22;31769;49.304;8.428;2023-07-13T00:30:52;19.20;99.90
46037;DHT22;31769;49.304;8.428;2023-07-13T00:33:54;19.10;99.90
46037;DHT22;31769;49.304;8.428;2023-07-13T00:36:55;19.00;99.90
46037;DHT22;31769;49.304;8.428;2023-07-13T00:39:56;18.90;99.90
46037;DHT22;31769;49.304;8.428;2023-07-13T00:42:58;18.80;99.90
46037;DHT22;31769;49.304;8.428;2023-07-13T00:46:22;18.80;99.90
46037;DHT22;31769;49.304;8.428;2023-07-13T00:49:25;18.80;99.90
46037;DHT22;31769;49.304;8.428;2023-07-13T00:52:26;18.80;99.90
46037;DHT22;31769;49.304;8.428;2023-07-13T00:55:28;18.90;99.90
46037;DHT22;31769;49.304;8.428;2023-07-13T00:58:29;18.90;99.90
46037;DHT22;31769;49.304;8.428;2023-07-13T01:01:31;18.90;99.90
46037;DHT22;31769;49.304;8.428;2023-07-13T01:04:33;18.90;99.90
46037;DHT22;31769;49.304;8.428;2023-07-13T01:07:34;18.80;99.90
46037;DHT22;31769;49.304;8.428;2023-07-13T01:10:34;18.90;99.90
46037;DHT22;31769;49.304;8.428;2023-07-13T01:13:39;18.90;99.90
46037;DHT22;31769;49.304;8.428;2023-07-13T01:16:42;18.90;99.90
46037;DHT22;31769;49.304;8.428;2023-07-13T01:19:44;19.00;99.90
46037;DHT22;31769;49.304;8.428;2023-07-13T01:22:45;18.90;99.90
46037;DHT22;31769;49.304;8.428;2023-07-13T01:25:46;18.90;99.90
46037;DHT22;31769;49.304;8.428;2023-07-13T01:28:47;18.90;99.90
46037;DHT22;31769;49.304;8.428;2023-07-13T01:31:48;18.90;99.90
46037;DHT22;31769;49.304;8.428;2023-07-13T01:34:49;18.80;99.90
46037;DHT22;31769;49.304;8.428;2023-07-13T01:37:51;18.70;99.90
46037;DHT22;31769;49.304;8.428;2023-07-13T01:40:52;18.70;99.90
46037;DHT22;31769;49.304;8.428;2023-07-13T01:43:53;18.60;99.90
46037;DHT22;31769;49.304;8.428;2023-07-13T01:46:53;18.60;99.90
46037;DHT22;31769;49.304;8.428;2023-07-13T01:49:54;18.60;99.90
46037;DHT22;31769;49.304;8.428;2023-07-13T01:52:55;18.50;99.90
46037;DHT22;31769;49.304;8.428;2023-07-13T01:55:55;18.50;99.90
46037;DHT22;31769;49.304;8.428;2023-07-13T01:58:56;18.40;99.90
46037;DHT22;31769;49.304;8.428;2023-07-13T02:01:57;18.40;99.90
46037;DHT22;31769;49.304;8.428;2023-07-13T02:04:58;18.30;99.90
46037;DHT22;31769;49.304;8.428;2023-07-13T02:07:59;18.20;99.90
46037;DHT22;31769;49.304;8.428;2023-07-13T02:11:00;18.10;99.90
46037;DHT22;31769;49.304;8.428;2023-07-13T02:14:02;18.00;99.90
46037;DHT22;31769;49.304;8.428;2023-07-13T02:17:03;17.90;99.90
46037;DHT22;31769;49.304;8.428;2023-07-13T02:20:04;17.80;99.90
46037;DHT22;31769;49.304;8.428;2023-07-13T02:23:05;17.90;99.90
46037;DHT22;31769;49.304;8.428;2023-07-13T02:26:06;18.00;99.90
46037;DHT22;31769;49.304;8.428;2023-07-13T02:29:07;18.10;99.90
46037;DHT22;31769;49.304;8.428;2023-07-13T02:32:07;18.10;99.90
46037;DHT22;31769;49.304;8.428;2023-07-13T02:35:08;18.10;99.90
46037;DHT22;31769;49.304;8.428;2023-07-13T02:38:12;18.10;99.90
46037;DHT22;31769;49.304;8.428;2023-07-13T02:41:12;18.10;99.90
46037;DHT22;31769;49.304;8.428;2023-07-13T02:44:14;18.10;99.90
46037;DHT22;31769;49.304;8.428;2023-07-13T02:47:15;18.00;99.90
46037;DHT22;31769;49.304;8.428;2023-07-13T02:50:16;18.00;99.90
46037;DHT22;31769;49.304;8.428;2023-07-13T02:53:17;17.90;99.90
46037;DHT22;31769;49.304;8.428;2023-07-13T02:56:21;17.90;99.90
46037;DHT22;31769;49.304;8.428;2023-07-13T02:59:22;17.80;99.90
46037;DHT22;31769;49.304;8.428;2023-07-13T03:02:23;17.70;99.90
46037;DHT22;31769;49.304;8.428;2023-07-13T03:05:24;17.70;99.90
46037;DHT22;31769;49.304;8.428;2023-07-13T03:08:25;17.90;99.90
46037;DHT22;31769;49.304;8.428;2023-07-13T03:11:27;17.90;99.90
46037;DHT22;31769;49.304;8.428;2023-07-13T03:14:37;17.90;99.90
46037;DHT22;31769;49.304;8.428;2023-07-13T03:17:40;17.80;99.90
46037;DHT22;31769;49.304;8.428;2023-07-13T03:20:42;17.70;99.90
46037;DHT22;31769;49.304;8.428;2023-07-13T03:23:43;17.70;99.90
46037;DHT22;31769;49.304;8.428;2023-07-13T03:26:44;17.70;99.90
46037;DHT22;31769;49.304;8.428;2023-07-13T03:29:45;17.70;99.90
46037;DHT22;31769;49.304;8.428;2023-07-13T03:32:46;17.70;99.90
46037;DHT22;31769;49.304;8.428;2023-07-13T03:35:47;17.60;99.90
46037;DHT22;31769;49.304;8.428;2023-07-13T03:38:57;17.40;99.90
46037;DHT22;31769;49.304;8.428;2023-07-13T03:42:03;17.40;99.90
46037;DHT22;31769;49.304;8.428;2023-07-13T03:45:04;17.40;99.90
46037;DHT22;31769;49.304;8.428;2023-07-13T03:48:07;17.40;99.90
46037;DHT22;31769;49.304;8.428;2023-07-13T03:51:07;17.50;99.90
46037;DHT22;31769;49.304;8.428;2023-07-13T03:54:09;17.50;99.90
46037;DHT22;31769;49.304;8.428;2023-07-13T03:57:10;17.60;99.90
46037;DHT22;31769;49.304;8.428;2023-07-13T04:00:11;17.70;99.90
46037;DHT22;31769;49.304;8.428;2023-07-13T04:03:18;17.70;99.90
46037;DHT22;31769;49.304;8.428;2023-07-13T04:06:27;17.60;99.90
46037;DHT22;31769;49.304;8.428;2023-07-13T04:09:28;17.40;99.90
46037;DHT22;31769;49.304;8.428;2023-07-13T04:12:29;17.10;99.90
46037;DHT22;31769;49.304;8.428;2023-07-13T04:15:30;17.00;99.90
46037;DHT22;31769;49.304;8.428;2023-07-13T04:18:31;17.10;99.90
46037;DHT22;31769;49.304;8.428;2023-07-13T04:21:32;17.10;99.90
46037;DHT22;31769;49.304;8.428;2023-07-13T04:24:33;17.20;99.90
46037;DHT22;31769;49.304;8.428;2023-07-13T04:27:33;17.30;99.90
46037;DHT22;31769;49.304;8.428;2023-07-13T04:30:34;17.40;99.90
46037;DHT22;31769;49.304;8.428;2023-07-13T04:33:35;17.50;99.90
46037;DHT22;31769;49.304;8.428;2023-07-13T04:36:35;17.50;99.90
46037;DHT22;31769;49.304;8.428;2023-07-13T04:39:37;17.10;99.90
46037;DHT22;31769;49.304;8.428;2023-07-13T04:42:38;17.40;99.90
46037;DHT22;31769;49.304;8.428;2023-07-13T04:45:40;17.30;99.90
46037;DHT22;31769;49.304;8.428;2023-07-13T04:48:41;17.20;99.90
46037;DHT22;31769;49.304;8.428;2023-07-13T04:51:42;17.20;99.90
46037;DHT22;31769;49.304;8.428;2023-07-13T04:54:43;17.30;99.90
46037;DHT22;31769;49.304;8.428;2023-07-13T04:57:43;17.20;99.90
46037;DHT22;31769;49.304;8.428;2023-07-13T05:00:44;17.30;99.90
46037;DHT22;31769;49.304;8.428;2023-07-13T05:03:45;17.30;99.90
46037;DHT22;31769;49.304;8.428;2023-07-13T05:06:45;17.40;99.90
46037;DHT22;31769;49.304;8.428;2023-07-13T05:09:46;17.50;99.90
46037;DHT22;31769;49.304;8.428;2023-07-13T05:12:47;17.70;99.90
46037;DHT22;31769;49.304;8.428;2023-07-13T05:15:56;17.80;99.90
46037;DHT22;31769;49.304;8.428;2023-07-13T05:18:57;17.70;99.90
46037;DHT22;31769;49.304;8.428;2023-07-13T05:21:57;17.70;99.90
46037;DHT22;31769;49.304;8.428;2023-07-13T05:24:58;17.80;99.90
46037;DHT22;31769;49.304;8.428;2023-07-13T05:27:59;17.80;99.90
46037;DHT22;31769;49.304;8.428;2023-07-13T05:31:00;17.90;99.90
46037;DHT22;31769;49.304;8.428;2023-07-13T05:34:00;17.90;99.90
46037;DHT22;31769;49.304;8.428;2023-07-13T05:37:01;17.90;99.90
46037;DHT22;31769;49.304;8.428;2023-07-13T05:40:02;17.90;99.90
46037;DHT22;31769;49.304;8.428;2023-07-13T05:43:06;18.00;99.90
46037;DHT22;31769;49.304;8.428;2023-07-13T05:46:07;18.20;99.90
46037;DHT22;31769;49.304;8.428;2023-07-13T05:49:13;18.30;99.90
46037;DHT22;31769;49.304;8.428;2023-07-13T05:52:13;18.10;99.90
46037;DHT22;31769;49.304;8.428;2023-07-13T05:55:14;18.10;99.90
46037;DHT22;31769;49.304;8.428;2023-07-13T05:58:17;18.00;99.90
46037;DHT22;31769;49.304;8.428;2023-07-13T06:01:17;18.10;99.90
46037;DHT22;31769;49.304;8.428;2023-07-13T06:04:20;18.00;99.90
46037;DHT22;31769;49.304;8.428;2023-07-13T06:07:21;17.90;99.90
46037;DHT22;31769;49.304;8.428;2023-07-13T06:10:21;17.90;99.90
46037;DHT22;31769;49.304;8.428;2023-07-13T06:13:22;18.00;99.90
46037;DHT22;31769;49.304;8.428;2023-07-13T06:16:23;18.10;99.90
46037;DHT22;31769;49.304;8.428;2023-07-13T06:19:24;18.30;99.90
46037;DHT22;31769;49.304;8.428;2023-07-13T06:22:25;18.40;99.90
46037;DHT22;31769;49.304;8.428;2023-07-13T06:25:26;18.60;99.90
46037;DHT22;31769;49.304;8.428;2023-07-13T06:28:28;18.90;99.90
46037;DHT22;31769;49.304;8.428;2023-07-13T06:31:32;19.10;99.90
46037;DHT22;31769;49.304;8.428;2023-07-13T06:34:33;19.20;99.90
46037;DHT22;31769;49.304;8.428;2023-07-13T06:37:34;19.20;99.90
46037;DHT22;31769;49.304;8.428;2023-07-13T06:40:34;19.40;99.90
46037;DHT22;31769;49.304;8.428;2023-07-13T06:43:35;19.50;99.90
46037;DHT22;31769;49.304;8.428;2023-07-13T06:46:36;19.60;99.90
46037;DHT22;31769;49.304;8.428;2023-07-13T06:49:37;19.60;99.90
46037;DHT22;31769;49.304;8.428;2023-07-13T06:52:38;19.90;99.90
46037;DHT22;31769;49.304;8.428;2023-07-13T06:55:38;20.30;99.90
46037;DHT22;31769;49.304;8.428;2023-07-13T06:58:39;20.50;99.90
46037;DHT22;31769;49.304;8.428;2023-07-13T07:01:40;20.70;99.90
46037;DHT22;31769;49.304;8.428;2023-07-13T07:04:40;20.80;99.90
46037;DHT22;31769;49.304;8.428;2023-07-13T07:07:41;21.00;99.90
46037;DHT22;31769;49.304;8.428;2023-07-13T07:10:42;21.30;99.90
46037;DHT22;31769;49.304;8.428;2023-07-13T07:13:42;21.40;99.90
46037;DHT22;31769;49.304;8.428;2023-07-13T07:16:43;21.40;99.90
46037;DHT22;31769;49.304;8.428;2023-07-13T07:19:44;21.40;99.90
46037;DHT22;31769;49.304;8.428;2023-07-13T07:22:44;21.50;99.90
46037;DHT22;31769;49.304;8.428;2023-07-13T07:25:45;21.50;99.00
46037;DHT22;31769;49.304;8.428;2023-07-13T07:28:46;21.60;98.50
46037;DHT22;31769;49.304;8.428;2023-07-13T07:31:46;21.60;98.40
46037;DHT22;31769;49.304;8.428;2023-07-13T07:34:47;21.80;97.80
46037;DHT22;31769;49.304;8.428;2023-07-13T07:37:48;22.00;97.30
46037;DHT22;31769;49.304;8.428;2023-07-13T07:40:48;21.90;96.90
46037;DHT22;31769;49.304;8.428;2023-07-13T07:43:49;21.90;97.20
46037;DHT22;31769;49.304;8.428;2023-07-13T07:46:50;22.10;97.30
46037;DHT22;31769;49.304;8.428;2023-07-13T07:49:50;22.00;97.50
46037;DHT22;31769;49.304;8.428;2023-07-13T07:52:51;22.00;97.40
46037;DHT22;31769;49.304;8.428;2023-07-13T07:55:52;22.10;97.00
46037;DHT22;31769;49.304;8.428;2023-07-13T07:58:53;22.00;96.90
46037;DHT22;31769;49.304;8.428;2023-07-13T08:01:54;22.00;96.70
46037;DHT22;31769;49.304;8.428;2023-07-13T08:04:55;22.00;96.90
46037;DHT22;31769;49.304;8.428;2023-07-13T08:07:55;22.10;97.00
46037;DHT22;31769;49.304;8.428;2023-07-13T08:10:56;21.80;97.00
46037;DHT22;31769;49.304;8.428;2023-07-13T08:13:56;22.10;97.10
46037;DHT22;31769;49.304;8.428;2023-07-13T08:16:57;22.30;96.70
46037;DHT22;31769;49.304;8.428;2023-07-13T08:19:58;22.60;96.60
46037;DHT22;31769;49.304;8.428;2023-07-13T08:22:58;22.90;96.00
46037;DHT22;31769;49.304;8.428;2023-07-13T08:25:59;23.00;95.70
46037;DHT22;31769;49.304;8.428;2023-07-13T08:29:02;23.00;95.40
46037;DHT22;31769;49.304;8.428;2023-07-13T08:32:13;23.20;95.20
46037;DHT22;31769;49.304;8.428;2023-07-13T08:35:19;23.60;95.00
46037;DHT22;31769;49.304;8.428;2023-07-13T08:38:20;23.80;95.40
46037;DHT22;31769;49.304;8.428;2023-07-13T08:41:21;24.10;95.10
46037;DHT22;31769;49.304;8.428;2023-07-13T08:44:29;24.20;93.00
46037;DHT22;31769;49.304;8.428;2023-07-13T08:47:33;23.60;93.70
46037;DHT22;31769;49.304;8.428;2023-07-13T08:50:46;23.40;94.10
46037;DHT22;31769;49.304;8.428;2023-07-13T08:53:50;23.30;93.40
46037;DHT22;31769;49.304;8.428;2023-07-13T08:56:54;23.10;93.30
46037;DHT22;31769;49.304;8.428;2023-07-13T08:59:56;23.20;92.90
46037;DHT22;31769;49.304;8.428;2023-07-13T09:02:58;23.50;92.60
46037;DHT22;31769;49.304;8.428;2023-07-13T09:06:00;23.70;92.30
46037;DHT22;31769;49.304;8.428;2023-07-13T09:09:08;23.90;91.90
46037;DHT22;31769;49.304;8.428;2023-07-13T09:12:40;24.00;91.50
46037;DHT22;31769;49.304;8.428;2023-07-13T09:15:47;24.20;91.40
46037;DHT22;31769;49.304;8.428;2023-07-13T09:18:51;24.30;91.40
46037;DHT22;31769;49.304;8.428;2023-07-13T09:21:53;24.30;91.50
46037;DHT22;31769;49.304;8.428;2023-07-13T09:25:05;24.30;90.70
46037;DHT22;31769;49.304;8.428;2023-07-13T09:28:23;24.30;91.70
46037;DHT22;31769;49.304;8.428;2023-07-13T09:34:30;25.20;90.80
46037;DHT22;31769;49.304;8.428;2023-07-13T09:37:32;25.20;90.30
46037;DHT22;31769;49.304;8.428;2023-07-13T09:47:30;24.60;88.80
46037;DHT22;31769;49.304;8.428;2023-07-13T09:50:30;24.30;88.80
46037;DHT22;31769;49.304;8.428;2023-07-13T09:53:31;24.40;89.30
46037;DHT22;31769;49.304;8.428;2023-07-13T09:56:32;24.50;88.60
46037;DHT22;31769;49.304;8.428;2023-07-13T09:59:42;24.10;89.90
46037;DHT22;31769;49.304;8.428;2023-07-13T10:02:45;24.00;89.60
46037;DHT22;31769;49.304;8.428;2023-07-13T10:05:48;24.20;88.50
46037;DHT22;31769;49.304;8.428;2023-07-13T10:08:51;24.50;85.60
46037;DHT22;31769;49.304;8.428;2023-07-13T10:11:52;24.60;85.40
46037;DHT22;31769;49.304;8.428;2023-07-13T10:14:55;24.90;85.00
46037;DHT22;31769;49.304;8.428;2023-07-13T10:17:56;25.10;82.30
46037;DHT22;31769;49.304;8.428;2023-07-13T10:21:20;24.90;83.40
46037;DHT22;31769;49.304;8.428;2023-07-13T10:24:33;25.20;82.70
46037;DHT22;31769;49.304;8.428;2023-07-13T10:27:41;25.40;81.20
46037;DHT22;31769;49.304;8.428;2023-07-13T10:30:45;25.50;82.20
46037;DHT22;31769;49.304;8.428;2023-07-13T10:33:46;25.60;75.40
46037;DHT22;31769;49.304;8.428;2023-07-13T10:36:48;25.50;76.50
46037;DHT22;31769;49.304;8.428;2023-07-13T10:39:50;25.40;76.50
46037;DHT22;31769;49.304;8.428;2023-07-13T10:42:54;25.40;76.80
46037;DHT22;31769;49.304;8.428;2023-07-13T10:45:56;25.60;76.50
46037;DHT22;31769;49.304;8.428;2023-07-13T10:52:50;26.10;76.60
46037;DHT22;31769;49.304;8.428;2023-07-13T10:59:25;26.30;74.20
46037;DHT22;31769;49.304;8.428;2023-07-13T11:02:27;26.30;74.40
46037;DHT22;31769;49.304;8.428;2023-07-13T11:05:32;26.30;74.60
46037;DHT22;31769;49.304;8.428;2023-07-13T11:08:36;26.20;73.30
46037;DHT22;31769;49.304;8.428;2023-07-13T11:11:38;26.10;71.70
46037;DHT22;31769;49.304;8.428;2023-07-13T11:15:01;26.00;72.20
46037;DHT22;31769;49.304;8.428;2023-07-13T11:18:20;26.20;71.80
46037;DHT22;31769;49.304;8.428;2023-07-13T11:21:25;26.30;72.10
46037;DHT22;31769;49.304;8.428;2023-07-13T11:24:33;26.30;72.20
46037;DHT22;31769;49.304;8.428;2023-07-13T11:31:15;26.10;69.50
46037;DHT22;31769;49.304;8.428;2023-07-13T11:34:21;25.90;70.10
46037;DHT22;31769;49.304;8.428;2023-07-13T11:37:26;25.90;68.30
46037;DHT22;31769;49.304;8.428;2023-07-13T11:40:29;26.00;69.00
46037;DHT22;31769;49.304;8.428;2023-07-13T11:43:30;26.10;69.20
46037;DHT22;31769;49.304;8.428;2023-07-13T11:46:31;26.50;69.50
46037;DHT22;31769;49.304;8.428;2023-07-13T11:49:32;26.80;69.60
46037;DHT22;31769;49.304;8.428;2023-07-13T11:52:39;26.80;69.60
46037;DHT22;31769;49.304;8.428;2023-07-13T11:55:39;26.80;68.00
46037;DHT22;31769;49.304;8.428;2023-07-13T11:58:41;26.60;67.30
46037;DHT22;31769;49.304;8.428;2023-07-13T12:01:52;26.50;67.60
46037;DHT22;31769;49.304;8.428;2023-07-13T12:04:53;26.60;67.60
46037;DHT22;31769;49.304;8.428;2023-07-13T12:07:54;27.00;67.40
46037;DHT22;31769;49.304;8.428;2023-07-13T12:11:09;27.20;65.90
46037;DHT22;31769;49.304;8.428;2023-07-13T12:14:15;27.70;65.60
46037;DHT22;31769;49.304;8.428;2023-07-13T12:17:20;28.20;64.20
46037;DHT22;31769;49.304;8.428;2023-07-13T12:20:25;27.70;63.60
46037;DHT22;31769;49.304;8.428;2023-07-13T12:23:34;27.50;63.30
46037;DHT22;31769;49.304;8.428;2023-07-13T12:26:36;27.50;63.40
46037;DHT22;31769;49.304;8.428;2023-07-13T12:29:36;27.60;63.00
46037;DHT22;31769;49.304;8.428;2023-07-13T12:32:37;27.60;63.50
46037;DHT22;31769;49.304;8.428;2023-07-13T12:35:56;27.90;64.10
46037;DHT22;31769;49.304;8.428;2023-07-13T12:39:02;27.90;63.40
46037;DHT22;31769;49.304;8.428;2023-07-13T12:42:27;27.10;64.10
46037;DHT22;31769;49.304;8.428;2023-07-13T12:45:28;27.00;64.60
46037;DHT22;31769;49.304;8.428;2023-07-13T12:48:30;26.80;64.20
46037;DHT22;31769;49.304;8.428;2023-07-13T12:51:30;26.70;64.60
46037;DHT22;31769;49.304;8.428;2023-07-13T12:54:31;26.70;65.60
46037;DHT22;31769;49.304;8.428;2023-07-13T12:57:39;26.50;65.60
46037;DHT22;31769;49.304;8.428;2023-07-13T13:00:40;26.40;65.50
46037;DHT22;31769;49.304;8.428;2023-07-13T13:03:47;26.10;65.60
46037;DHT22;31769;49.304;8.428;2023-07-13T13:07:01;26.10;66.00
46037;DHT22;31769;49.304;8.428;2023-07-13T13:10:11;26.60;65.50
46037;DHT22;31769;49.304;8.428;2023-07-13T13:13:12;27.30;63.40
46037;DHT22;31769;49.304;8.428;2023-07-13T13:16:32;27.20;63.20
46037;DHT22;31769;49.304;8.428;2023-07-13T13:19:34;27.00;62.90
46037;DHT22;31769;49.304;8.428;2023-07-13T13:22:34;26.60;62.80
46037;DHT22;31769;49.304;8.428;2023-07-13T13:25:35;26.50;63.70
46037;DHT22;31769;49.304;8.428;2023-07-13T13:28:36;26.50;63.50
46037;DHT22;31769;49.304;8.428;2023-07-13T13:31:37;26.60;62.70
46037;DHT22;31769;49.304;8.428;2023-07-13T13:34:37;27.00;62.40
46037;DHT22;31769;49.304;8.428;2023-07-13T13:37:38;27.60;61.70
46037;DHT22;31769;49.304;8.428;2023-07-13T13:40:39;28.20;60.80
46037;DHT22;31769;49.304;8.428;2023-07-13T13:43:40;28.10;61.20
46037;DHT22;31769;49.304;8.428;2023-07-13T13:46:43;28.70;60.40
46037;DHT22;31769;49.304;8.428;2023-07-13T13:49:44;28.60;60.80
46037;DHT22;31769;49.304;8.428;2023-07-13T13:52:45;28.00;60.60
46037;DHT22;31769;49.304;8.428;2023-07-13T13:55:46;27.80;61.20
46037;DHT22;31769;49.304;8.428;2023-07-13T13:58:47;27.50;61.70
46037;DHT22;31769;49.304;8.428;2023-07-13T14:01:48;28.10;61.30
46037;DHT22;31769;49.304;8.428;2023-07-13T14:04:56;29.30;59.30
46037;DHT22;31769;49.304;8.428;2023-07-13T14:07:57;29.20;59.70
46037;DHT22;31769;49.304;8.428;2023-07-13T14:10:58;28.80;60.40
46037;DHT22;31769;49.304;8.428;2023-07-13T14:13:59;28.10;60.90
46037;DHT22;31769;49.304;8.428;2023-07-13T14:17:01;28.00;61.40
46037;DHT22;31769;49.304;8.428;2023-07-13T14:20:01;28.00;60.80
46037;DHT22;31769;49.304;8.428;2023-07-13T14:23:04;27.80;61.10
46037;DHT22;31769;49.304;8.428;2023-07-13T14:26:12;27.80;61.40
46037;DHT22;31769;49.304;8.428;2023-07-13T14:29:16;27.70;60.60
46037;DHT22;31769;49.304;8.428;2023-07-13T14:32:18;27.70;60.90
46037;DHT22;31769;49.304;8.428;2023-07-13T14:35:21;29.00;59.80
46037;DHT22;31769;49.304;8.428;2023-07-13T14:38:22;30.70;57.70
46037;DHT22;31769;49.304;8.428;2023-07-13T14:41:23;30.50;57.50
46037;DHT22;31769;49.304;8.428;2023-07-13T14:44:26;30.00;58.30
46037;DHT22;31769;49.304;8.428;2023-07-13T14:47:29;30.10;58.50
46037;DHT22;31769;49.304;8.428;2023-07-13T14:50:31;30.00;58.50
46037;DHT22;31769;49.304;8.428;2023-07-13T14:53:33;29.50;59.50
46037;DHT22;31769;49.304;8.428;2023-07-13T14:56:36;29.50;59.50
46037;DHT22;31769;49.304;8.428;2023-07-13T14:59:36;29.60;58.60
46037;DHT22;31769;49.304;8.428;2023-07-13T15:02:37;31.10;57.20
46037;DHT22;31769;49.304;8.428;2023-07-13T15:05:39;32.60;55.10
46037;DHT22;31769;49.304;8.428;2023-07-13T15:08:40;32.30;54.00
46037;DHT22;31769;49.304;8.428;2023-07-13T15:11:41;31.10;55.70
46037;DHT22;31769;49.304;8.428;2023-07-13T15:14:42;30.40;55.90
46037;DHT22;31769;49.304;8.428;2023-07-13T15:17:46;30.00;56.30
46037;DHT22;31769;49.304;8.428;2023-07-13T15:20:49;30.90;55.60
46037;DHT22;31769;49.304;8.428;2023-07-13T15:23:51;31.70;54.50
46037;DHT22;31769;49.304;8.428;2023-07-13T15:26:52;33.00;53.30
46037;DHT22;31769;49.304;8.428;2023-07-13T15:29:52;35.70;50.60
46037;DHT22;31769;49.304;8.428;2023-07-13T15:32:54;37.60;47.40
46037;DHT22;31769;49.304;8.428;2023-07-13T15:35:56;37.80;44.80
46037;DHT22;31769;49.304;8.428;2023-07-13T15:38:59;35.50;46.20
46037;DHT22;31769;49.304;8.428;2023-07-13T15:42:00;34.50;48.00
46037;DHT22;31769;49.304;8.428;2023-07-13T15:45:00;32.10;50.40
46037;DHT22;31769;49.304;8.428;2023-07-13T15:48:02;31.60;51.90
46037;DHT22;31769;49.304;8.428;2023-07-13T15:51:05;33.10;50.10
46037;DHT22;31769;49.304;8.428;2023-07-13T15:54:14;35.40;47.90
46037;DHT22;31769;49.304;8.428;2023-07-13T15:57:15;36.20;46.00
46037;DHT22;31769;49.304;8.428;2023-07-13T16:03:21;36.70;45.30
46037;DHT22;31769;49.304;8.428;2023-07-13T16:06:29;36.70;44.70
46037;DHT22;31769;49.304;8.428;2023-07-13T16:09:30;36.50;44.60
46037;DHT22;31769;49.304;8.428;2023-07-13T16:12:31;36.70;44.60
46037;DHT22;31769;49.304;8.428;2023-07-13T16:15:32;36.90;44.40
46037;DHT22;31769;49.304;8.428;2023-07-13T16:18:33;36.60;44.90
46037;DHT22;31769;49.304;8.428;2023-07-13T16:21:44;36.80;44.30
46037;DHT22;31769;49.304;8.428;2023-07-13T16:24:46;36.50;44.10
46037;DHT22;31769;49.304;8.428;2023-07-13T16:27:48;36.30;44.60
46037;DHT22;31769;49.304;8.428;2023-07-13T16:30:49;36.80;44.10
46037;DHT22;31769;49.304;8.428;2023-07-13T16:33:52;36.20;44.50
46037;DHT22;31769;49.304;8.428;2023-07-13T16:36:54;34.90;45.50
46037;DHT22;31769;49.304;8.428;2023-07-13T16:39:57;33.40;47.20
46037;DHT22;31769;49.304;8.428;2023-07-13T16:42:59;33.60;47.50
46037;DHT22;31769;49.304;8.428;2023-07-13T16:46:00;33.30;47.30
46037;DHT22;31769;49.304;8.428;2023-07-13T16:49:26;33.40;47.20
46037;DHT22;31769;49.304;8.428;2023-07-13T16:52:25;33.90;46.60
46037;DHT22;31769;49.304;8.428;2023-07-13T16:55:27;34.00;46.00
46037;DHT22;31769;49.304;8.428;2023-07-13T16:58:30;32.90;47.00
46037;DHT22;31769;49.304;8.428;2023-07-13T17:01:31;32.20;47.50
46037;DHT22;31769;49.304;8.428;2023-07-13T17:04:32;31.80;48.00
46037;DHT22;31769;49.304;8.428;2023-07-13T17:07:33;30.50;49.70
46037;DHT22;31769;49.304;8.428;2023-07-13T17:10:34;29.70;50.70
46037;DHT22;31769;49.304;8.428;2023-07-13T17:13:35;29.50;51.10
46037;DHT22;31769;49.304;8.428;2023-07-13T17:16:36;29.20;51.60
46037;DHT22;31769;49.304;8.428;2023-07-13T17:19:37;28.50;52.60
46037;DHT22;31769;49.304;8.428;2023-07-13T17:22:37;27.90;53.90
46037;DHT22;31769;49.304;8.428;2023-07-13T17:25:39;27.30;54.70
46037;DHT22;31769;49.304;8.428;2023-07-13T17:28:40;27.40;55.00
46037;DHT22;31769;49.304;8.428;2023-07-13T17:31:43;27.70;54.30
46037;DHT22;31769;49.304;8.428;2023-07-13T17:34:45;27.60;54.30
46037;DHT22;31769;49.304;8.428;2023-07-13T17:37:46;27.60;54.70
46037;DHT22;31769;49.304;8.428;2023-07-13T17:40:48;27.50;54.80
46037;DHT22;31769;49.304;8.428;2023-07-13T17:43:48;27.30;55.30
46037;DHT22;31769;49.304;8.428;2023-07-13T17:46:49;27.40;55.00
46037;DHT22;31769;49.304;8.428;2023-07-13T17:49:50;27.50;54.80
46037;DHT22;31769;49.304;8.428;2023-07-13T17:52:51;27.30;55.10
46037;DHT22;31769;49.304;8.428;2023-07-13T17:55:52;27.20;55.30
46037;DHT22;31769;49.304;8.428;2023-07-13T17:58:53;26.90;55.70
46037;DHT22;31769;49.304;8.428;2023-07-13T18:01:54;27.00;56.20
46037;DHT22;31769;49.304;8.428;2023-07-13T18:04:55;27.10;56.10
46037;DHT22;31769;49.304;8.428;2023-07-13T18:07:55;27.00;56.30
46037;DHT22;31769;49.304;8.428;2023-07-13T18:10:58;27.00;56.50
46037;DHT22;31769;49.304;8.428;2023-07-13T18:13:59;26.70;57.20
46037;DHT22;31769;49.304;8.428;2023-07-13T18:17:00;26.70;57.50
46037;DHT22;31769;49.304;8.428;2023-07-13T18:20:01;26.60;57.60
46037;DHT22;31769;49.304;8.428;2023-07-13T18:23:19;26.40;58.00
46037;DHT22;31769;49.304;8.428;2023-07-13T18:26:20;26.30;58.40
46037;DHT22;31769;49.304;8.428;2023-07-13T18:29:21;26.30;58.40
46037;DHT22;31769;49.304;8.428;2023-07-13T18:32:22;26.20;58.30
46037;DHT22;31769;49.304;8.428;2023-07-13T18:35:29;26.30;58.70
46037;DHT22;31769;49.304;8.428;2023-07-13T18:38:30;26.10;58.70
46037;DHT22;31769;49.304;8.428;2023-07-13T18:41:35;25.90;58.90
46037;DHT22;31769;49.304;8.428;2023-07-13T18:44:36;25.80;59.40
46037;DHT22;31769;49.304;8.428;2023-07-13T18:47:37;25.50;59.70
46037;DHT22;31769;49.304;8.428;2023-07-13T18:50:37;25.50;60.20
46037;DHT22;31769;49.304;8.428;2023-07-13T18:53:42;25.40;60.40
46037;DHT22;31769;49.304;8.428;2023-07-13T18:56:47;25.20;61.60
46037;DHT22;31769;49.304;8.428;2023-07-13T18:59:48;25.10;61.60
46037;DHT22;31769;49.304;8.428;2023-07-13T19:02:49;24.80;62.40
46037;DHT22;31769;49.304;8.428;2023-07-13T19:05:50;24.50;63.40
46037;DHT22;31769;49.304;8.428;2023-07-13T19:08:51;24.40;64.30
46037;DHT22;31769;49.304;8.428;2023-07-13T19:11:52;24.30;64.90
46037;DHT22;31769;49.304;8.428;2023-07-13T19:14:53;24.10;65.10
46037;DHT22;31769;49.304;8.428;2023-07-13T19:17:55;23.90;65.60
46037;DHT22;31769;49.304;8.428;2023-07-13T19:20:57;23.90;66.00
46037;DHT22;31769;49.304;8.428;2023-07-13T19:24:00;23.80;66.30
46037;DHT22;31769;49.304;8.428;2023-07-13T19:27:02;23.80;67.10
46037;DHT22;31769;49.304;8.428;2023-07-13T19:30:03;23.60;67.40
46037;DHT22;31769;49.304;8.428;2023-07-13T19:33:08;23.50;67.90
46037;DHT22;31769;49.304;8.428;2023-07-13T19:36:15;23.40;68.40